sensor_id;sensor_type;location;lat;lon;timestamp;temperature;humidity
52943;DHT22;38809;53.300;6.614;2023-07-20T00:00:52;15.80;99.90
52943;DHT22;38809;53.300;6.614;2023-07-20T00:03:19;15.80;99.90
52943;DHT22;38809;53.300;6.614;2023-07-20T00:05:49;15.70;99.90
52943;DHT22;38809;53.300;6.614;2023-07-20T00:08:15;15.70;99.90
52943;DHT22;38809;53.300;6.614;2023-07-20T00:10:41;15.80;99.90
52943;DHT22;38809;53.300;6.614;2023-07-20T00:13:07;15.70;99.90
52943;DHT22;38809;53.300;6.614;2023-07-20T00:15:32;15.70;99.90
52943;DHT22;38809;53.300;6.614;2023-07-20T00:17:58;15.80;99.90
52943;DHT22;38809;53.300;6.614;2023-07-20T00:20:24;15.70;99.90
52943;DHT22;38809;53.300;6.614;2023-07-20T00:22:51;15.70;99.90
52943;DHT22;38809;53.300;6.614;2023-07-20T00:25:17;15.70;99.90
52943;DHT22;38809;53.300;6.614;2023-07-20T00:27:43;15.70;99.90
52943;DHT22;38809;53.300;6.614;2023-07-20T00:30:09;15.60;99.90
52943;DHT22;38809;53.300;6.614;2023-07-20T00:32:35;15.60;99.90
52943;DHT22;38809;53.300;6.614;2023-07-20T00:35:01;15.60;99.90
52943;DHT22;38809;53.300;6.614;2023-07-20T00:37:26;15.50;99.90
52943;DHT22;38809;53.300;6.614;2023-07-20T00:39:52;15.50;99.90
52943;DHT22;38809;53.300;6.614;2023-07-20T00:42:18;15.50;99.90
52943;DHT22;38809;53.300;6.614;2023-07-20T00:44:44;15.50;99.90
52943;DHT22;38809;53.300;6.614;2023-07-20T00:47:10;15.50;99.90
52943;DHT22;38809;53.300;6.614;2023-07-20T00:49:37;15.40;99.90
52943;DHT22;38809;53.300;6.614;2023-07-20T00:52:03;15.50;99.90
52943;DHT22;38809;53.300;6.614;2023-07-20T00:54:31;15.50;99.90
52943;DHT22;38809;53.300;6.614;2023-07-20T00:56:57;15.40;99.90
52943;DHT22;38809;53.300;6.614;2023-07-20T00:59:23;15.40;99.90
52943;DHT22;38809;53.300;6.614;2023-07-20T01:01:49;15.30;99.90
52943;DHT22;38809;53.300;6.614;2023-07-20T01:04:15;15.20;99.90
52943;DHT22;38809;53.300;6.614;2023-07-20T01:07:06;15.20;99.90
52943;DHT22;38809;53.300;6.614;2023-07-20T01:09:44;15.20;99.90
52943;DHT22;38809;53.300;6.614;2023-07-20T01:12:18;15.20;99.90
52943;DHT22;38809;53.300;6.614;2023-07-20T01:14:46;15.20;99.90
52943;DHT22;38809;53.300;6.614;2023-07-20T01:17:12;15.10;99.90
52943;DHT22;38809;53.300;6.614;2023-07-20T01:19:39;15.10;99.90
52943;DHT22;38809;53.300;6.614;2023-07-20T01:33:09;14.80;99.90
52943;DHT22;38809;53.300;6.614;2023-07-20T01:35:37;14.70;99.90
52943;DHT22;38809;53.300;6.614;2023-07-20T01:38:04;14.70;99.90
52943;DHT22;38809;53.300;6.614;2023-07-20T01:40:30;14.50;99.90
52943;DHT22;38809;53.300;6.614;2023-07-20T01:42:56;14.30;99.90
52943;DHT22;38809;53.300;6.614;2023-07-20T01:45:21;14.30;99.90
52943;DHT22;38809;53.300;6.614;2023-07-20T01:47:47;14.30;99.90
52943;DHT22;38809;53.300;6.614;2023-07-20T01:50:13;14.20;99.90
52943;DHT22;38809;53.300;6.614;2023-07-20T01:52:38;14.20;99.90
52943;DHT22;38809;53.300;6.614;2023-07-20T01:55:04;14.20;99.90
52943;DHT22;38809;53.300;6.614;2023-07-20T01:57:30;14.10;99.90
52943;DHT22;38809;53.300;6.614;2023-07-20T01:59:56;14.00;99.90
52943;DHT22;38809;53.300;6.614;2023-07-20T02:02:26;13.90;99.90
52943;DHT22;38809;53.300;6.614;2023-07-20T02:04:52;13.80;99.90
52943;DHT22;38809;53.300;6.614;2023-07-20T02:07:17;13.80;99.90
52943;DHT22;38809;53.300;6.614;2023-07-20T02:09:43;13.80;99.90
52943;DHT22;38809;53.300;6.614;2023-07-20T02:12:09;13.90;99.90
52943;DHT22;38809;53.300;6.614;2023-07-20T02:14:35;14.00;99.90
52943;DHT22;38809;53.300;6.614;2023-07-20T02:17:00;14.00;99.90
52943;DHT22;38809;53.300;6.614;2023-07-20T02:19:28;14.00;99.90
52943;DHT22;38809;53.300;6.614;2023-07-20T02:21:54;14.00;99.90
52943;DHT22;38809;53.300;6.614;2023-07-20T02:24:20;14.00;99.90
52943;DHT22;38809;53.300;6.614;2023-07-20T02:26:45;13.90;99.90
52943;DHT22;38809;53.300;6.614;2023-07-20T02:29:11;14.00;99.90
52943;DHT22;38809;53.300;6.614;2023-07-20T02:31:37;14.00;99.90
52943;DHT22;38809;53.300;6.614;2023-07-20T02:34:05;13.90;99.90
52943;DHT22;38809;53.300;6.614;2023-07-20T02:36:31;13.90;99.90
52943;DHT22;38809;53.300;6.614;2023-07-20T02:38:58;13.90;99.90
52943;DHT22;38809;53.300;6.614;2023-07-20T02:41:24;13.80;99.90
52943;DHT22;38809;53.300;6.614;2023-07-20T02:43:50;13.80;99.90
52943;DHT22;38809;53.300;6.614;2023-07-20T02:46:16;13.90;99.90
52943;DHT22;38809;53.300;6.614;2023-07-20T02:48:41;13.80;99.90
52943;DHT22;38809;53.300;6.614;2023-07-20T02:51:07;13.70;99.90
52943;DHT22;38809;53.300;6.614;2023-07-20T02:53:33;13.80;99.90
52943;DHT22;38809;53.300;6.614;2023-07-20T02:55:59;13.60;99.90
52943;DHT22;38809;53.300;6.614;2023-07-20T02:58:25;13.60;99.90
52943;DHT22;38809;53.300;6.614;2023-07-20T03:00:50;13.70;99.90
52943;DHT22;38809;53.300;6.614;2023-07-20T03:03:16;13.60;99.90
52943;DHT22;38809;53.300;6.614;2023-07-20T03:05:42;13.70;99.90
52943;DHT22;38809;53.300;6.614;2023-07-20T03:08:08;13.60;99.90
52943;DHT22;38809;53.300;6.614;2023-07-20T03:10:38;13.50;99.90
52943;DHT22;38809;53.300;6.614;2023-07-20T03:13:05;13.50;99.90
52943;DHT22;38809;53.300;6.614;2023-07-20T03:15:30;13.40;99.90
52943;DHT22;38809;53.300;6.614;2023-07-20T03:17:56;13.20;99.90
52943;DHT22;38809;53.300;6.614;2023-07-20T03:20:24;13.20;99.90
52943;DHT22;38809;53.300;6.614;2023-07-20T03:22:50;13.20;99.90
52943;DHT22;38809;53.300;6.614;2023-07-20T03:25:16;13.20;99.90
52943;DHT22;38809;53.300;6.614;2023-07-20T03:27:43;13.10;99.90
52943;DHT22;38809;53.300;6.614;2023-07-20T03:30:09;13.00;99.90
52943;DHT22;38809;53.300;6.614;2023-07-20T03:32:35;13.00;99.90
52943;DHT22;38809;53.300;6.614;2023-07-20T03:35:01;13.00;99.90
52943;DHT22;38809;53.300;6.614;2023-07-20T03:37:27;12.90;99.90
52943;DHT22;38809;53.300;6.614;2023-07-20T03:39:53;13.00;99.90
52943;DHT22;38809;53.300;6.614;2023-07-20T03:42:18;13.00;99.90
52943;DHT22;38809;53.300;6.614;2023-07-20T03:44:44;13.00;99.90
52943;DHT22;38809;53.300;6.614;2023-07-20T03:47:10;13.00;99.90
52943;DHT22;38809;53.300;6.614;2023-07-20T03:49:36;12.90;99.90
52943;DHT22;38809;53.300;6.614;2023-07-20T03:52:02;12.90;99.90
52943;DHT22;38809;53.300;6.614;2023-07-20T03:54:29;12.90;99.90
52943;DHT22;38809;53.300;6.614;2023-07-20T03:56:54;12.80;99.90
52943;DHT22;38809;53.300;6.614;2023-07-20T03:59:20;12.90;99.90
52943;DHT22;38809;53.300;6.614;2023-07-20T04:01:46;12.80;99.90
52943;DHT22;38809;53.300;6.614;2023-07-20T04:04:12;12.90;99.90
52943;DHT22;38809;53.300;6.614;2023-07-20T04:06:37;12.90;99.90
52943;DHT22;38809;53.300;6.614;2023-07-20T04:09:03;13.00;99.90
52943;DHT22;38809;53.300;6.614;2023-07-20T04:11:31;13.10;99.90
52943;DHT22;38809;53.300;6.614;2023-07-20T04:13:56;13.10;99.90
52943;DHT22;38809;53.300;6.614;2023-07-20T04:16:22;13.10;99.90
52943;DHT22;38809;53.300;6.614;2023-07-20T04:18:48;13.10;99.90
52943;DHT22;38809;53.300;6.614;2023-07-20T04:21:13;13.20;99.90
52943;DHT22;38809;53.300;6.614;2023-07-20T04:23:39;13.20;99.90
52943;DHT22;38809;53.300;6.614;2023-07-20T04:26:05;13.30;99.90
52943;DHT22;38809;53.300;6.614;2023-07-20T04:28:32;13.30;99.90
52943;DHT22;38809;53.300;6.614;2023-07-20T04:31:09;13.40;99.90
52943;DHT22;38809;53.300;6.614;2023-07-20T04:33:36;13.50;99.90
52943;DHT22;38809;53.300;6.614;2023-07-20T04:36:02;13.50;99.90
52943;DHT22;38809;53.300;6.614;2023-07-20T04:38:28;13.40;99.90
52943;DHT22;38809;53.300;6.614;2023-07-20T04:40:54;13.40;99.90
52943;DHT22;38809;53.300;6.614;2023-07-20T04:43:19;13.30;99.90
52943;DHT22;38809;53.300;6.614;2023-07-20T04:45:45;13.30;99.90
52943;DHT22;38809;53.300;6.614;2023-07-20T04:48:14;13.40;99.90
52943;DHT22;38809;53.300;6.614;2023-07-20T04:50:41;13.40;99.90
52943;DHT22;38809;53.300;6.614;2023-07-20T04:53:09;13.50;99.90
52943;DHT22;38809;53.300;6.614;2023-07-20T04:55:36;13.50;99.90
52943;DHT22;38809;53.300;6.614;2023-07-20T04:58:03;14.00;99.90
52943;DHT22;38809;53.300;6.614;2023-07-20T05:00:33;14.00;99.90
52943;DHT22;38809;53.300;6.614;2023-07-20T05:02:59;14.10;99.90
52943;DHT22;38809;53.300;6.614;2023-07-20T05:05:25;15.30;99.90
52943;DHT22;38809;53.300;6.614;2023-07-20T05:07:50;15.10;99.90
52943;DHT22;38809;53.300;6.614;2023-07-20T05:10:17;15.00;99.90
52943;DHT22;38809;53.300;6.614;2023-07-20T05:12:43;15.00;99.90
52943;DHT22;38809;53.300;6.614;2023-07-20T05:15:09;15.00;99.90
52943;DHT22;38809;53.300;6.614;2023-07-20T05:17:34;15.10;99.90
52943;DHT22;38809;53.300;6.614;2023-07-20T05:20:00;15.60;99.90
52943;DHT22;38809;53.300;6.614;2023-07-20T05:22:26;15.20;99.90
52943;DHT22;38809;53.300;6.614;2023-07-20T05:24:52;15.60;99.90
52943;DHT22;38809;53.300;6.614;2023-07-20T05:27:17;15.20;99.90
52943;DHT22;38809;53.300;6.614;2023-07-20T05:29:44;15.10;99.90
52943;DHT22;38809;53.300;6.614;2023-07-20T05:32:10;15.00;99.90
52943;DHT22;38809;53.300;6.614;2023-07-20T05:34:36;14.90;99.90
52943;DHT22;38809;53.300;6.614;2023-07-20T05:37:02;14.90;99.90
52943;DHT22;38809;53.300;6.614;2023-07-20T05:39:27;14.90;99.90
52943;DHT22;38809;53.300;6.614;2023-07-20T05:41:53;14.80;99.90
52943;DHT22;38809;53.300;6.614;2023-07-20T05:44:18;15.00;99.90
52943;DHT22;38809;53.300;6.614;2023-07-20T05:46:44;15.10;99.90
52943;DHT22;38809;53.300;6.614;2023-07-20T05:49:10;15.10;99.90
52943;DHT22;38809;53.300;6.614;2023-07-20T05:51:35;15.20;99.90
52943;DHT22;38809;53.300;6.614;2023-07-20T05:54:01;15.20;99.90
52943;DHT22;38809;53.300;6.614;2023-07-20T05:56:27;15.30;99.90
52943;DHT22;38809;53.300;6.614;2023-07-20T05:58:53;15.30;99.90
52943;DHT22;38809;53.300;6.614;2023-07-20T06:01:18;15.40;99.90
52943;DHT22;38809;53.300;6.614;2023-07-20T06:03:44;15.40;99.90
52943;DHT22;38809;53.300;6.614;2023-07-20T06:06:10;15.50;99.90
52943;DHT22;38809;53.300;6.614;2023-07-20T06:08:38;15.50;99.90
52943;DHT22;38809;53.300;6.614;2023-07-20T06:11:03;15.60;99.90
52943;DHT22;38809;53.300;6.614;2023-07-20T06:13:29;15.70;99.90
52943;DHT22;38809;53.300;6.614;2023-07-20T06:15:55;15.70;99.90
52943;DHT22;38809;53.300;6.614;2023-07-20T06:18:22;15.70;99.90
52943;DHT22;38809;53.300;6.614;2023-07-20T06:20:49;15.80;99.90
52943;DHT22;38809;53.300;6.614;2023-07-20T06:23:16;15.90;99.90
52943;DHT22;38809;53.300;6.614;2023-07-20T06:25:42;16.00;99.90
52943;DHT22;38809;53.300;6.614;2023-07-20T06:28:07;16.00;99.90
52943;DHT22;38809;53.300;6.614;2023-07-20T06:30:34;15.90;99.90
52943;DHT22;38809;53.300;6.614;2023-07-20T06:33:00;15.90;99.90
52943;DHT22;38809;53.300;6.614;2023-07-20T06:35:26;15.80;99.90
52943;DHT22;38809;53.300;6.614;2023-07-20T06:37:52;15.90;99.90
52943;DHT22;38809;53.300;6.614;2023-07-20T06:40:17;15.90;99.90
52943;DHT22;38809;53.300;6.614;2023-07-20T06:42:43;16.00;99.90
52943;DHT22;38809;53.300;6.614;2023-07-20T06:45:09;16.00;99.90
52943;DHT22;38809;53.300;6.614;2023-07-20T06:47:37;16.00;99.90
52943;DHT22;38809;53.300;6.614;2023-07-20T06:50:03;16.00;99.90
52943;DHT22;38809;53.300;6.614;2023-07-20T06:52:28;16.10;99.90
52943;DHT22;38809;53.300;6.614;2023-07-20T06:54:54;16.30;99.90
52943;DHT22;38809;53.300;6.614;2023-07-20T06:57:20;16.40;99.90
52943;DHT22;38809;53.300;6.614;2023-07-20T06:59:46;16.40;99.90
52943;DHT22;38809;53.300;6.614;2023-07-20T07:02:11;16.70;99.90
52943;DHT22;38809;53.300;6.614;2023-07-20T07:04:37;16.80;99.90
52943;DHT22;38809;53.300;6.614;2023-07-20T07:07:03;16.80;99.90
52943;DHT22;38809;53.300;6.614;2023-07-20T07:09:29;16.70;99.90
52943;DHT22;38809;53.300;6.614;2023-07-20T07:11:55;16.60;99.90
52943;DHT22;38809;53.300;6.614;2023-07-20T07:14:20;16.90;99.90
52943;DHT22;38809;53.300;6.614;2023-07-20T07:16:47;16.90;99.90
52943;DHT22;38809;53.300;6.614;2023-07-20T07:19:13;17.20;99.90
52943;DHT22;38809;53.300;6.614;2023-07-20T07:21:39;17.50;99.90
52943;DHT22;38809;53.300;6.614;2023-07-20T07:24:05;17.70;99.90
52943;DHT22;38809;53.300;6.614;2023-07-20T07:26:33;17.90;99.90
52943;DHT22;38809;53.300;6.614;2023-07-20T07:28:59;17.80;99.90
52943;DHT22;38809;53.300;6.614;2023-07-20T07:31:29;17.80;99.90
52943;DHT22;38809;53.300;6.614;2023-07-20T07:33:56;17.90;99.90
52943;DHT22;38809;53.300;6.614;2023-07-20T07:36:22;18.00;99.90
52943;DHT22;38809;53.300;6.614;2023-07-20T07:38:49;17.90;99.90
52943;DHT22;38809;53.300;6.614;2023-07-20T07:41:15;18.10;99.90
52943;DHT22;38809;53.300;6.614;2023-07-20T07:43:41;18.40;99.90
52943;DHT22;38809;53.300;6.614;2023-07-20T07:46:07;17.80;99.90
52943;DHT22;38809;53.300;6.614;2023-07-20T07:48:32;17.50;99.90
52943;DHT22;38809;53.300;6.614;2023-07-20T07:50:58;17.90;99.90
52943;DHT22;38809;53.300;6.614;2023-07-20T07:53:24;17.90;99.90
52943;DHT22;38809;53.300;6.614;2023-07-20T07:55:51;18.10;99.90
52943;DHT22;38809;53.300;6.614;2023-07-20T07:58:18;18.50;99.90
52943;DHT22;38809;53.300;6.614;2023-07-20T08:00:44;18.80;99.90
52943;DHT22;38809;53.300;6.614;2023-07-20T08:03:10;18.70;99.90
52943;DHT22;38809;53.300;6.614;2023-07-20T08:05:36;18.50;99.90
52943;DHT22;38809;53.300;6.614;2023-07-20T08:08:02;18.20;99.90
52943;DHT22;38809;53.300;6.614;2023-07-20T08:10:29;18.50;99.90
52943;DHT22;38809;53.300;6.614;2023-07-20T08:12:55;18.40;99.90
52943;DHT22;38809;53.300;6.614;2023-07-20T08:15:21;18.80;99.90
52943;DHT22;38809;53.300;6.614;2023-07-20T08:17:46;18.50;99.90
52943;DHT22;38809;53.300;6.614;2023-07-20T08:20:14;19.00;99.90
52943;DHT22;38809;53.300;6.614;2023-07-20T08:22:41;19.20;99.90
52943;DHT22;38809;53.300;6.614;2023-07-20T08:25:08;19.20;99.90
52943;DHT22;38809;53.300;6.614;2023-07-20T08:27:34;19.70;99.90
52943;DHT22;38809;53.300;6.614;2023-07-20T08:30:00;19.50;99.90
52943;DHT22;38809;53.300;6.614;2023-07-20T08:32:26;19.20;99.90
52943;DHT22;38809;53.300;6.614;2023-07-20T08:34:52;18.70;99.90
52943;DHT22;38809;53.300;6.614;2023-07-20T08:37:17;18.80;99.90
52943;DHT22;38809;53.300;6.614;2023-07-20T08:39:43;19.10;99.90
52943;DHT22;38809;53.300;6.614;2023-07-20T08:42:09;19.50;99.90
52943;DHT22;38809;53.300;6.614;2023-07-20T08:44:38;19.90;99.90
52943;DHT22;38809;53.300;6.614;2023-07-20T08:47:06;19.70;99.90
52943;DHT22;38809;53.300;6.614;2023-07-20T08:49:32;19.60;99.90
52943;DHT22;38809;53.300;6.614;2023-07-20T08:51:59;20.00;99.90
52943;DHT22;38809;53.300;6.614;2023-07-20T08:54:30;20.10;99.90
52943;DHT22;38809;53.300;6.614;2023-07-20T08:57:02;19.50;99.90
52943;DHT22;38809;53.300;6.614;2023-07-20T08:59:29;19.10;99.90
52943;DHT22;38809;53.300;6.614;2023-07-20T09:01:56;19.50;99.90
52943;DHT22;38809;53.300;6.614;2023-07-20T09:04:23;19.50;99.90
52943;DHT22;38809;53.300;6.614;2023-07-20T09:06:50;20.30;99.90
52943;DHT22;38809;53.300;6.614;2023-07-20T09:09:16;20.10;99.90
52943;DHT22;38809;53.300;6.614;2023-07-20T09:11:42;20.50;99.90
52943;DHT22;38809;53.300;6.614;2023-07-20T09:14:08;19.70;99.90
52943;DHT22;38809;53.300;6.614;2023-07-20T09:16:52;19.70;99.90
52943;DHT22;38809;53.300;6.614;2023-07-20T09:19:18;19.90;99.90
52943;DHT22;38809;53.300;6.614;2023-07-20T09:21:49;20.30;99.90
52943;DHT22;38809;53.300;6.614;2023-07-20T09:24:17;20.40;99.90
52943;DHT22;38809;53.300;6.614;2023-07-20T09:26:47;20.20;99.90
52943;DHT22;38809;53.300;6.614;2023-07-20T09:29:19;21.00;99.90
52943;DHT22;38809;53.300;6.614;2023-07-20T09:32:02;20.60;99.90
52943;DHT22;38809;53.300;6.614;2023-07-20T09:34:31;20.40;99.90
52943;DHT22;38809;53.300;6.614;2023-07-20T09:37:00;20.50;99.90
52943;DHT22;38809;53.300;6.614;2023-07-20T09:39:26;19.80;99.90
52943;DHT22;38809;53.300;6.614;2023-07-20T09:41:52;20.50;99.90
52943;DHT22;38809;53.300;6.614;2023-07-20T09:44:18;20.70;99.90
52943;DHT22;38809;53.300;6.614;2023-07-20T09:46:48;21.00;99.90
52943;DHT22;38809;53.300;6.614;2023-07-20T09:49:14;20.50;99.90
52943;DHT22;38809;53.300;6.614;2023-07-20T09:51:40;20.60;99.90
52943;DHT22;38809;53.300;6.614;2023-07-20T09:54:07;20.60;99.90
52943;DHT22;38809;53.300;6.614;2023-07-20T09:56:33;20.10;99.90
52943;DHT22;38809;53.300;6.614;2023-07-20T09:58:59;20.00;99.90
52943;DHT22;38809;53.300;6.614;2023-07-20T10:01:26;20.50;99.90
52943;DHT22;38809;53.300;6.614;2023-07-20T10:03:56;20.20;99.90
52943;DHT22;38809;53.300;6.614;2023-07-20T10:06:24;19.80;99.90
52943;DHT22;38809;53.300;6.614;2023-07-20T10:08:53;20.20;99.90
52943;DHT22;38809;53.300;6.614;2023-07-20T10:11:21;21.00;99.90
52943;DHT22;38809;53.300;6.614;2023-07-20T10:13:51;20.50;99.90
52943;DHT22;38809;53.300;6.614;2023-07-20T10:16:38;20.00;99.90
52943;DHT22;38809;53.300;6.614;2023-07-20T10:19:13;20.40;99.90
52943;DHT22;38809;53.300;6.614;2023-07-20T10:21:47;20.00;99.90
52943;DHT22;38809;53.300;6.614;2023-07-20T10:24:15;19.50;99.90
52943;DHT22;38809;53.300;6.614;2023-07-20T10:26:42;19.60;99.90
52943;DHT22;38809;53.300;6.614;2023-07-20T10:29:07;19.40;99.90
52943;DHT22;38809;53.300;6.614;2023-07-20T10:31:34;20.00;99.90
52943;DHT22;38809;53.300;6.614;2023-07-20T10:34:01;20.20;99.90
52943;DHT22;38809;53.300;6.614;2023-07-20T10:36:27;20.50;99.90
52943;DHT22;38809;53.300;6.614;2023-07-20T10:38:55;21.10;99.90
52943;DHT22;38809;53.300;6.614;2023-07-20T10:41:35;21.20;99.90
52943;DHT22;38809;53.300;6.614;2023-07-20T10:44:06;20.90;99.90
52943;DHT22;38809;53.300;6.614;2023-07-20T10:49:09;21.10;99.90
52943;DHT22;38809;53.300;6.614;2023-07-20T10:51:47;21.20;99.90
52943;DHT22;38809;53.300;6.614;2023-07-20T10:56:42;20.00;99.90
52943;DHT22;38809;53.300;6.614;2023-07-20T11:01:59;20.70;99.90
52943;DHT22;38809;53.300;6.614;2023-07-20T11:04:39;20.80;99.90
52943;DHT22;38809;53.300;6.614;2023-07-20T11:07:05;21.10;99.90
52943;DHT22;38809;53.300;6.614;2023-07-20T11:09:38;20.60;99.90
52943;DHT22;38809;53.300;6.614;2023-07-20T11:14:41;21.00;99.90
52943;DHT22;38809;53.300;6.614;2023-07-20T11:17:14;19.90;99.90
52943;DHT22;38809;53.300;6.614;2023-07-20T11:19:40;20.10;99.90
52943;DHT22;38809;53.300;6.614;2023-07-20T11:22:06;20.50;99.90
52943;DHT22;38809;53.300;6.614;2023-07-20T11:24:38;20.70;99.90
52943;DHT22;38809;53.300;6.614;2023-07-20T11:27:05;20.40;99.90
52943;DHT22;38809;53.300;6.614;2023-07-20T11:29:30;21.10;99.90
52943;DHT22;38809;53.300;6.614;2023-07-20T11:31:57;21.10;99.90
52943;DHT22;38809;53.300;6.614;2023-07-20T11:34:24;21.10;99.90
52943;DHT22;38809;53.300;6.614;2023-07-20T11:36:51;20.80;99.90
52943;DHT22;38809;53.300;6.614;2023-07-20T11:39:21;20.60;99.90
52943;DHT22;38809;53.300;6.614;2023-07-20T11:41:57;20.90;99.90
52943;DHT22;38809;53.300;6.614;2023-07-20T11:44:27;20.20;99.90
52943;DHT22;38809;53.300;6.614;2023-07-20T11:47:08;20.30;99.90
52943;DHT22;38809;53.300;6.614;2023-07-20T11:49:38;20.60;99.90
52943;DHT22;38809;53.300;6.614;2023-07-20T11:52:06;20.90;99.90
52943;DHT22;38809;53.300;6.614;2023-07-20T11:54:39;20.30;99.90
52943;DHT22;38809;53.300;6.614;2023-07-20T11:57:05;20.70;99.90
52943;DHT22;38809;53.300;6.614;2023-07-20T11:59:32;20.80;99.90
52943;DHT22;38809;53.300;6.614;2023-07-20T12:02:01;20.80;99.90
52943;DHT22;38809;53.300;6.614;2023-07-20T12:04:26;20.80;99.90
52943;DHT22;38809;53.300;6.614;2023-07-20T12:06:54;20.80;99.90
52943;DHT22;38809;53.300;6.614;2023-07-20T12:09:21;21.00;99.90
52943;DHT22;38809;53.300;6.614;2023-07-20T12:11:49;20.70;99.90
52943;DHT22;38809;53.300;6.614;2023-07-20T12:14:15;20.50;99.90
52943;DHT22;38809;53.300;6.614;2023-07-20T12:16:41;20.40;99.90
52943;DHT22;38809;53.300;6.614;2023-07-20T12:19:13;21.10;99.90
52943;DHT22;38809;53.300;6.614;2023-07-20T12:21:40;21.00;99.90
52943;DHT22;38809;53.300;6.614;2023-07-20T12:24:07;20.80;99.90
52943;DHT22;38809;53.300;6.614;2023-07-20T12:26:34;20.70;99.90
52943;DHT22;38809;53.300;6.614;2023-07-20T12:29:01;21.20;99.90
52943;DHT22;38809;53.300;6.614;2023-07-20T12:31:29;21.40;99.90
52943;DHT22;38809;53.300;6.614;2023-07-20T12:33:56;20.90;99.90
52943;DHT22;38809;53.300;6.614;2023-07-20T12:36:23;21.10;99.90
52943;DHT22;38809;53.300;6.614;2023-07-20T12:38:49;20.90;99.90
52943;DHT22;38809;53.300;6.614;2023-07-20T12:41:15;20.40;99.90
52943;DHT22;38809;53.300;6.614;2023-07-20T12:43:44;20.10;99.90
52943;DHT22;38809;53.300;6.614;2023-07-20T12:46:11;20.60;99.90
52943;DHT22;38809;53.300;6.614;2023-07-20T12:48:37;20.70;99.90
52943;DHT22;38809;53.300;6.614;2023-07-20T12:51:04;20.60;99.90
52943;DHT22;38809;53.300;6.614;2023-07-20T12:53:30;20.50;99.90
52943;DHT22;38809;53.300;6.614;2023-07-20T12:55:56;20.40;99.90
52943;DHT22;38809;53.300;6.614;2023-07-20T12:58:22;20.50;99.90
52943;DHT22;38809;53.300;6.614;2023-07-20T13:00:49;20.70;99.90
52943;DHT22;38809;53.300;6.614;2023-07-20T13:03:15;20.40;99.90
52943;DHT22;38809;53.300;6.614;2023-07-20T13:05:41;20.60;99.90
52943;DHT22;38809;53.300;6.614;2023-07-20T13:08:07;20.60;99.90
52943;DHT22;38809;53.300;6.614;2023-07-20T13:10:33;20.40;99.90
52943;DHT22;38809;53.300;6.614;2023-07-20T13:12:59;20.50;99.90
52943;DHT22;38809;53.300;6.614;2023-07-20T13:15:30;20.40;99.90
52943;DHT22;38809;53.300;6.614;2023-07-20T13:17:59;20.50;99.90
52943;DHT22;38809;53.300;6.614;2023-07-20T13:20:26;20.30;99.90
52943;DHT22;38809;53.300;6.614;2023-07-20T13:22:53;20.30;99.90
52943;DHT22;38809;53.300;6.614;2023-07-20T13:25:20;20.30;99.90
52943;DHT22;38809;53.300;6.614;2023-07-20T13:27:46;20.30;99.90
52943;DHT22;38809;53.300;6.614;2023-07-20T13:30:12;20.20;99.90
52943;DHT22;38809;53.300;6.614;2023-07-20T13:32:42;20.10;99.90
52943;DHT22;38809;53.300;6.614;2023-07-20T13:35:09;20.40;99.90
52943;DHT22;38809;53.300;6.614;2023-07-20T13:37:35;20.30;99.90
52943;DHT22;38809;53.300;6.614;2023-07-20T13:40:01;20.40;99.90
52943;DHT22;38809;53.300;6.614;2023-07-20T13:42:26;20.40;99.90
52943;DHT22;38809;53.300;6.614;2023-07-20T13:44:52;20.30;99.90
52943;DHT22;38809;53.300;6.614;2023-07-20T13:47:18;20.40;99.90
52943;DHT22;38809;53.300;6.614;2023-07-20T13:49:44;20.30;99.90
52943;DHT22;38809;53.300;6.614;2023-07-20T13:52:09;20.50;99.90
52943;DHT22;38809;53.300;6.614;2023-07-20T13:54:35;20.30;99.90
52943;DHT22;38809;53.300;6.614;2023-07-20T13:57:01;20.60;99.90
52943;DHT22;38809;53.300;6.614;2023-07-20T13:59:26;20.10;99.90
52943;DHT22;38809;53.300;6.614;2023-07-20T14:01:52;20.10;99.90
52943;DHT22;38809;53.300;6.614;2023-07-20T14:04:18;20.20;99.90
52943;DHT22;38809;53.300;6.614;2023-07-20T14:06:44;20.20;99.90
52943;DHT22;38809;53.300;6.614;2023-07-20T14:09:09;20.60;99.90
52943;DHT22;38809;53.300;6.614;2023-07-20T14:11:35;20.50;99.90
52943;DHT22;38809;53.300;6.614;2023-07-20T14:14:01;20.40;99.90
52943;DHT22;38809;53.300;6.614;2023-07-20T14:16:27;20.10;99.90
52943;DHT22;38809;53.300;6.614;2023-07-20T14:18:52;20.00;99.90
52943;DHT22;38809;53.300;6.614;2023-07-20T14:21:19;19.60;99.90
52943;DHT22;38809;53.300;6.614;2023-07-20T14:23:46;19.80;99.90
52943;DHT22;38809;53.300;6.614;2023-07-20T14:26:12;19.90;99.90
52943;DHT22;38809;53.300;6.614;2023-07-20T14:28:38;20.00;99.90
52943;DHT22;38809;53.300;6.614;2023-07-20T14:31:04;19.70;99.90
52943;DHT22;38809;53.300;6.614;2023-07-20T14:33:30;19.70;99.90
52943;DHT22;38809;53.300;6.614;2023-07-20T14:35:56;19.90;99.90
52943;DHT22;38809;53.300;6.614;2023-07-20T14:38:21;20.10;99.90
52943;DHT22;38809;53.300;6.614;2023-07-20T14:40:47;20.10;99.90
52943;DHT22;38809;53.300;6.614;2023-07-20T14:43:13;20.20;99.90
52943;DHT22;38809;53.300;6.614;2023-07-20T14:45:40;19.70;99.90
52943;DHT22;38809;53.300;6.614;2023-07-20T14:48:06;19.90;99.90
52943;DHT22;38809;53.300;6.614;2023-07-20T14:50:32;20.10;99.90
52943;DHT22;38809;53.300;6.614;2023-07-20T14:52:57;19.80;99.90
52943;DHT22;38809;53.300;6.614;2023-07-20T14:55:23;19.90;99.90
52943;DHT22;38809;53.300;6.614;2023-07-20T14:57:49;20.10;99.90
52943;DHT22;38809;53.300;6.614;2023-07-20T15:00:15;20.60;99.90
52943;DHT22;38809;53.300;6.614;2023-07-20T15:02:40;20.70;99.90
52943;DHT22;38809;53.300;6.614;2023-07-20T15:05:07;20.20;99.90
52943;DHT22;38809;53.300;6.614;2023-07-20T15:07:33;20.40;99.90
52943;DHT22;38809;53.300;6.614;2023-07-20T15:10:00;20.40;99.90
52943;DHT22;38809;53.300;6.614;2023-07-20T15:12:26;20.40;99.90
52943;DHT22;38809;53.300;6.614;2023-07-20T15:15:06;20.00;99.90
52943;DHT22;38809;53.300;6.614;2023-07-20T15:17:32;19.80;99.90
52943;DHT22;38809;53.300;6.614;2023-07-20T15:19:58;19.90;99.90
52943;DHT22;38809;53.300;6.614;2023-07-20T15:22:25;19.70;99.90
52943;DHT22;38809;53.300;6.614;2023-07-20T15:24:51;20.00;99.90
52943;DHT22;38809;53.300;6.614;2023-07-20T15:27:16;20.20;99.90
52943;DHT22;38809;53.300;6.614;2023-07-20T15:29:42;20.30;99.90
52943;DHT22;38809;53.300;6.614;2023-07-20T15:32:10;20.40;99.90
52943;DHT22;38809;53.300;6.614;2023-07-20T15:34:35;20.20;99.90
52943;DHT22;38809;53.300;6.614;2023-07-20T15:37:01;20.00;99.90
52943;DHT22;38809;53.300;6.614;2023-07-20T15:39:28;19.80;99.90
52943;DHT22;38809;53.300;6.614;2023-07-20T15:41:55;19.80;99.90
52943;DHT22;38809;53.300;6.614;2023-07-20T15:44:21;20.00;99.90
52943;DHT22;38809;53.300;6.614;2023-07-20T15:46:48;20.00;99.90
52943;DHT22;38809;53.300;6.614;2023-07-20T15:49:14;20.30;99.90